sensor_id;sensor_type;location;lat;lon;timestamp;pressure;altitude;pressure_sealevel;temperature;humidity
65756;BME280;52489;47.502;18.940;2022-08-18T00:00:24;97722.69;;;24.18;48.02
65756;BME280;52489;47.502;18.940;2022-08-18T00:01:28;97716.56;;;24.17;48.58
65756;BME280;52489;47.502;18.940;2022-08-18T00:02:33;97713.09;;;24.20;48.93
65756;BME280;52489;47.502;18.940;2022-08-18T00:03:36;97703.22;;;24.14;49.55
65756;BME280;52489;47.502;18.940;2022-08-18T00:04:59;97701.63;;;24.23;49.77
65756;BME280;52489;47.502;18.940;2022-08-18T00:06:03;97703.59;;;24.12;50.29
65756;BME280;52489;47.502;18.940;2022-08-18T00:07:09;97707.44;;;24.11;50.47
65756;BME280;52489;47.502;18.940;2022-08-18T00:08:12;97706.63;;;24.18;50.46
65756;BME280;52489;47.502;18.940;2022-08-18T00:09:15;97715.44;;;24.15;50.60
65756;BME280;52489;47.502;18.940;2022-08-18T00:10:18;97703.59;;;24.12;50.71
65756;BME280;52489;47.502;18.940;2022-08-18T00:11:22;97709.72;;;24.13;50.82
65756;BME280;52489;47.502;18.940;2022-08-18T00:12:36;97703.19;;;24.17;50.73
65756;BME280;52489;47.502;18.940;2022-08-18T00:13:40;97694.78;;;24.15;50.98
65756;BME280;52489;47.502;18.940;2022-08-18T00:14:44;97695.53;;;24.16;51.05
65756;BME280;52489;47.502;18.940;2022-08-18T00:15:47;97699.72;;;24.20;51.07
65756;BME280;52489;47.502;18.940;2022-08-18T00:16:52;97699.69;;;24.24;51.02
65756;BME280;52489;47.502;18.940;2022-08-18T00:17:55;97695.12;;;24.21;51.51
65756;BME280;52489;47.502;18.940;2022-08-18T00:18:59;97697.88;;;24.14;51.73
65756;BME280;52489;47.502;18.940;2022-08-18T00:20:11;97694.78;;;24.15;51.79
65756;BME280;52489;47.502;18.940;2022-08-18T00:21:15;97695.12;;;24.21;51.45
65756;BME280;52489;47.502;18.940;2022-08-18T00:22:20;97688.66;;;24.18;51.63
65756;BME280;52489;47.502;18.940;2022-08-18T00:23:23;97695.12;;;24.21;51.57
65756;BME280;52489;47.502;18.940;2022-08-18T00:24:27;97686.69;;;24.22;51.73
65756;BME280;52489;47.502;18.940;2022-08-18T00:25:30;97693.66;;;24.13;52.15
65756;BME280;52489;47.502;18.940;2022-08-18T00:26:33;97690.63;;;24.07;52.29
65756;BME280;52489;47.502;18.940;2022-08-18T00:27:38;97682.19;;;24.12;52.42
65756;BME280;52489;47.502;18.940;2022-08-18T00:28:43;97685.25;;;24.14;52.22
65756;BME280;52489;47.502;18.940;2022-08-18T00:29:46;97687.12;;;24.17;52.22
65756;BME280;52489;47.502;18.940;2022-08-18T00:30:49;97687.50;;;24.16;52.17
65756;BME280;52489;47.502;18.940;2022-08-18T00:31:56;97680.34;;;24.05;52.56
65756;BME280;52489;47.502;18.940;2022-08-18T00:32:59;97690.25;;;24.09;52.71
65756;BME280;52489;47.502;18.940;2022-08-18T00:34:02;97689.13;;;24.06;53.08
65756;BME280;52489;47.502;18.940;2022-08-18T00:35:12;97692.06;;;24.19;53.45
65756;BME280;52489;47.502;18.940;2022-08-18T00:36:15;97695.50;;;24.19;53.53
65756;BME280;52489;47.502;18.940;2022-08-18T00:37:20;97691.34;;;24.15;53.69
65756;BME280;52489;47.502;18.940;2022-08-18T00:38:24;97690.25;;;24.09;54.13
65756;BME280;52489;47.502;18.940;2022-08-18T00:39:27;97686.44;;;24.06;54.21
65756;BME280;52489;47.502;18.940;2022-08-18T00:40:47;97696.06;;;23.96;54.76
65756;BME280;52489;47.502;18.940;2022-08-18T00:41:51;97690.72;;;23.96;54.85
65756;BME280;52489;47.502;18.940;2022-08-18T00:42:57;97688.44;;;23.91;55.37
65756;BME280;52489;47.502;18.940;2022-08-18T00:44:01;97685.00;;;23.94;55.28
65756;BME280;52489;47.502;18.940;2022-08-18T00:45:06;97683.47;;;23.90;55.38
65756;BME280;52489;47.502;18.940;2022-08-18T00:46:29;97687.66;;;23.94;55.50
65756;BME280;52489;47.502;18.940;2022-08-18T00:47:32;97693.41;;;23.96;55.63
65756;BME280;52489;47.502;18.940;2022-08-18T00:48:54;97687.56;;;24.09;55.26
65756;BME280;52489;47.502;18.940;2022-08-18T00:49:57;97698.31;;;24.01;55.45
65756;BME280;52489;47.502;18.940;2022-08-18T00:51:05;97692.59;;;23.99;55.55
65756;BME280;52489;47.502;18.940;2022-08-18T00:52:11;97693.00;;;23.98;55.78
65756;BME280;52489;47.502;18.940;2022-08-18T00:53:28;97699.09;;;24.02;55.71
65756;BME280;52489;47.502;18.940;2022-08-18T00:54:34;97699.87;;;23.99;56.13
65756;BME280;52489;47.502;18.940;2022-08-18T00:55:40;97701.78;;;23.95;56.18
65756;BME280;52489;47.502;18.940;2022-08-18T00:56:59;97694.19;;;23.93;56.24
65756;BME280;52489;47.502;18.940;2022-08-18T00:58:10;97702.56;;;23.95;56.41
65756;BME280;52489;47.502;18.940;2022-08-18T00:59:55;97697.19;;;23.99;56.41
65756;BME280;52489;47.502;18.940;2022-08-18T01:01:04;97697.28;;;23.81;57.17
65756;BME280;52489;47.502;18.940;2022-08-18T01:02:12;97700.41;;;23.72;57.44
65756;BME280;52489;47.502;18.940;2022-08-18T01:03:20;97702.31;;;23.75;57.45
65756;BME280;52489;47.502;18.940;2022-08-18T01:04:51;97698.87;;;23.71;57.52
65756;BME280;52489;47.502;18.940;2022-08-18T01:06:16;97694.63;;;23.77;57.41
65756;BME280;52489;47.502;18.940;2022-08-18T01:07:35;97697.28;;;23.81;57.39
65756;BME280;52489;47.502;18.940;2022-08-18T01:08:40;97701.94;;;23.73;57.79
65756;BME280;52489;47.502;18.940;2022-08-18T01:09:43;97701.09;;;23.87;57.50
65756;BME280;52489;47.502;18.940;2022-08-18T01:10:47;97699.97;;;23.81;57.69
65756;BME280;52489;47.502;18.940;2022-08-18T01:11:51;97696.16;;;23.78;57.56
65756;BME280;52489;47.502;18.940;2022-08-18T01:12:57;97688.56;;;23.73;57.73
65756;BME280;52489;47.502;18.940;2022-08-18T01:14:02;97700.72;;;23.78;57.75
65756;BME280;52489;47.502;18.940;2022-08-18T01:15:05;97700.75;;;23.74;57.78
65756;BME280;52489;47.502;18.940;2022-08-18T01:16:29;97700.78;;;23.71;57.97
65756;BME280;52489;47.502;18.940;2022-08-18T01:18:05;97699.59;;;23.79;57.96
65756;BME280;52489;47.502;18.940;2022-08-18T01:19:28;97704.22;;;23.68;58.47
65756;BME280;52489;47.502;18.940;2022-08-18T01:21:03;97711.84;;;23.69;58.46
65756;BME280;52489;47.502;18.940;2022-08-18T01:23:51;97721.81;;;23.54;59.31
65756;BME280;52489;47.502;18.940;2022-08-18T01:24:57;97719.53;;;23.56;59.25
65756;BME280;52489;47.502;18.940;2022-08-18T01:26:21;97722.63;;;23.48;59.71
65756;BME280;52489;47.502;18.940;2022-08-18T01:27:26;97725.28;;;23.51;59.66
65756;BME280;52489;47.502;18.940;2022-08-18T01:28:36;97716.19;;;23.38;59.78
65756;BME280;52489;47.502;18.940;2022-08-18T01:29:39;97716.22;;;23.31;59.70
65756;BME280;52489;47.502;18.940;2022-08-18T01:30:55;97720.00;;;23.33;59.80
65756;BME280;52489;47.502;18.940;2022-08-18T01:31:59;97723.78;;;23.39;59.52
65756;BME280;52489;47.502;18.940;2022-08-18T01:33:02;97713.87;;;23.44;59.25
65756;BME280;52489;47.502;18.940;2022-08-18T01:34:09;97718.88;;;23.31;59.72
65756;BME280;52489;47.502;18.940;2022-08-18T01:35:14;97722.69;;;23.30;59.91
65756;BME280;52489;47.502;18.940;2022-08-18T01:36:20;97718.88;;;23.24;60.21
65756;BME280;52489;47.502;18.940;2022-08-18T01:37:24;97718.50;;;23.22;60.19
65756;BME280;52489;47.502;18.940;2022-08-18T01:38:27;97722.75;;;23.19;60.06
65756;BME280;52489;47.502;18.940;2022-08-18T01:39:34;97727.28;;;23.19;60.04
65756;BME280;52489;47.502;18.940;2022-08-18T01:40:58;97733.44;;;23.12;60.44
65756;BME280;52489;47.502;18.940;2022-08-18T01:42:21;97731.53;;;23.05;60.70
65756;BME280;52489;47.502;18.940;2022-08-18T01:43:26;97733.03;;;23.21;60.43
65756;BME280;52489;47.502;18.940;2022-08-18T01:44:29;97739.16;;;23.10;60.77
65756;BME280;52489;47.502;18.940;2022-08-18T01:45:32;97737.63;;;23.13;60.45
65756;BME280;52489;47.502;18.940;2022-08-18T01:46:35;97733.06;;;23.06;60.47
65756;BME280;52489;47.502;18.940;2022-08-18T01:47:38;97729.25;;;23.07;60.52
65756;BME280;52489;47.502;18.940;2022-08-18T01:48:51;97723.91;;;23.07;60.58
65756;BME280;52489;47.502;18.940;2022-08-18T01:49:55;97726.97;;;23.02;60.92
65756;BME280;52489;47.502;18.940;2022-08-18T01:51:02;97728.88;;;22.87;61.63
65756;BME280;52489;47.502;18.940;2022-08-18T01:52:06;97728.13;;;22.69;62.40
65756;BME280;52489;47.502;18.940;2022-08-18T01:53:11;97731.94;;;22.64;62.60
65756;BME280;52489;47.502;18.940;2022-08-18T01:54:13;97730.78;;;22.65;62.56
65756;BME280;52489;47.502;18.940;2022-08-18T01:55:16;97733.84;;;22.60;62.79
65756;BME280;52489;47.502;18.940;2022-08-18T01:56:20;97731.56;;;22.55;63.18
65756;BME280;52489;47.502;18.940;2022-08-18T01:57:23;97725.06;;;22.56;62.92
65756;BME280;52489;47.502;18.940;2022-08-18T01:58:27;97726.97;;;22.48;63.23
65756;BME280;52489;47.502;18.940;2022-08-18T01:59:33;97733.06;;;22.56;63.06
65756;BME280;52489;47.502;18.940;2022-08-18T02:00:36;97736.13;;;22.62;62.91
65756;BME280;52489;47.502;18.940;2022-08-18T02:01:42;97733.81;;;22.57;62.82
65756;BME280;52489;47.502;18.940;2022-08-18T02:02:50;97736.91;;;22.52;63.00
65756;BME280;52489;47.502;18.940;2022-08-18T02:04:04;97738.03;;;22.51;63.15
65756;BME280;52489;47.502;18.940;2022-08-18T02:05:59;97732.69;;;22.58;62.79
65756;BME280;52489;47.502;18.940;2022-08-18T02:07:06;97728.91;;;22.48;63.20
65756;BME280;52489;47.502;18.940;2022-08-18T02:08:09;97726.59;;;22.54;62.96
65756;BME280;52489;47.502;18.940;2022-08-18T02:09:17;97730.00;;;22.51;63.17
65756;BME280;52489;47.502;18.940;2022-08-18T02:10:25;97731.56;;;22.48;63.08
65756;BME280;52489;47.502;18.940;2022-08-18T02:11:29;97728.50;;;22.49;63.24
65756;BME280;52489;47.502;18.940;2022-08-18T02:12:32;97728.88;;;22.44;63.40
65756;BME280;52489;47.502;18.940;2022-08-18T02:13:35;97728.13;;;22.44;63.30
65756;BME280;52489;47.502;18.940;2022-08-18T02:14:39;97716.28;;;22.38;63.58
65756;BME280;52489;47.502;18.940;2022-08-18T02:15:42;97720.50;;;22.32;63.79
65756;BME280;52489;47.502;18.940;2022-08-18T02:16:50;97719.72;;;22.38;63.76
65756;BME280;52489;47.502;18.940;2022-08-18T02:17:53;97721.25;;;22.36;63.80
65756;BME280;52489;47.502;18.940;2022-08-18T02:19:02;97728.84;;;22.30;63.95
65756;BME280;52489;47.502;18.940;2022-08-18T02:20:07;97729.25;;;22.21;64.13
65756;BME280;52489;47.502;18.940;2022-08-18T02:21:16;97732.69;;;22.25;64.13
65756;BME280;52489;47.502;18.940;2022-08-18T02:22:20;97734.59;;;22.32;63.96
65756;BME280;52489;47.502;18.940;2022-08-18T02:23:24;97734.56;;;22.18;64.56
65756;BME280;52489;47.502;18.940;2022-08-18T02:24:31;97735.34;;;22.22;64.53
65756;BME280;52489;47.502;18.940;2022-08-18T02:25:34;97731.56;;;22.34;63.79
65756;BME280;52489;47.502;18.940;2022-08-18T02:26:40;97736.87;;;22.23;64.11
65756;BME280;52489;47.502;18.940;2022-08-18T02:27:45;97742.97;;;22.23;64.01
65756;BME280;52489;47.502;18.940;2022-08-18T02:28:52;97736.81;;;22.12;64.80
65756;BME280;52489;47.502;18.940;2022-08-18T02:29:58;97735.72;;;22.24;64.49
65756;BME280;52489;47.502;18.940;2022-08-18T02:31:14;97741.84;;;22.28;64.40
65756;BME280;52489;47.502;18.940;2022-08-18T02:32:17;97735.34;;;22.25;64.67
65756;BME280;52489;47.502;18.940;2022-08-18T02:33:21;97735.72;;;22.20;65.21
65756;BME280;52489;47.502;18.940;2022-08-18T02:34:24;97729.22;;;22.18;65.30
65756;BME280;52489;47.502;18.940;2022-08-18T02:35:27;97732.25;;;22.13;65.63
65756;BME280;52489;47.502;18.940;2022-08-18T02:36:30;97735.72;;;22.24;65.26
65756;BME280;52489;47.502;18.940;2022-08-18T02:37:33;97732.28;;;22.23;65.29
65756;BME280;52489;47.502;18.940;2022-08-18T02:38:37;97739.53;;;22.23;65.38
65756;BME280;52489;47.502;18.940;2022-08-18T02:39:43;97738.41;;;22.28;65.26
65756;BME280;52489;47.502;18.940;2022-08-18T02:40:50;97739.94;;;22.21;65.38
65756;BME280;52489;47.502;18.940;2022-08-18T02:41:55;97738.78;;;22.30;65.24
65756;BME280;52489;47.502;18.940;2022-08-18T02:42:59;97737.25;;;22.29;65.26
65756;BME280;52489;47.502;18.940;2022-08-18T02:44:07;97742.59;;;22.21;65.65
65756;BME280;52489;47.502;18.940;2022-08-18T02:45:11;97733.84;;;22.24;65.39
65756;BME280;52489;47.502;18.940;2022-08-18T02:46:15;97729.63;;;22.34;65.11
65756;BME280;52489;47.502;18.940;2022-08-18T02:47:21;97736.50;;;22.42;64.63
65756;BME280;52489;47.502;18.940;2022-08-18T02:48:24;97740.31;;;22.38;64.97
65756;BME280;52489;47.502;18.940;2022-08-18T02:49:36;97735.72;;;22.42;64.85
65756;BME280;52489;47.502;18.940;2022-08-18T02:50:39;97746.44;;;22.49;64.62
65756;BME280;52489;47.502;18.940;2022-08-18T02:51:49;97751.00;;;22.48;64.62
65756;BME280;52489;47.502;18.940;2022-08-18T02:52:53;97739.94;;;22.46;64.68
65756;BME280;52489;47.502;18.940;2022-08-18T02:53:56;97745.66;;;22.38;65.27
65756;BME280;52489;47.502;18.940;2022-08-18T02:55:02;97741.06;;;22.28;65.70
65756;BME280;52489;47.502;18.940;2022-08-18T02:56:15;97749.09;;;22.28;65.60
65756;BME280;52489;47.502;18.940;2022-08-18T02:57:45;97752.16;;;22.33;65.49
65756;BME280;52489;47.502;18.940;2022-08-18T03:00:00;97757.38;;;22.15;66.31
65756;BME280;52489;47.502;18.940;2022-08-18T03:01:06;97751.75;;;22.28;65.56
65756;BME280;52489;47.502;18.940;2022-08-18T03:02:09;97746.03;;;22.33;65.38
65756;BME280;52489;47.502;18.940;2022-08-18T03:03:12;97746.81;;;22.37;65.21
65756;BME280;52489;47.502;18.940;2022-08-18T03:04:19;97752.13;;;22.44;65.09
65756;BME280;52489;47.502;18.940;2022-08-18T03:05:30;97759.00;;;22.31;65.68
65756;BME280;52489;47.502;18.940;2022-08-18T03:06:35;97746.81;;;22.33;65.50
65756;BME280;52489;47.502;18.940;2022-08-18T03:07:38;97746.81;;;22.37;65.38
65756;BME280;52489;47.502;18.940;2022-08-18T03:08:42;97744.50;;;22.28;65.83
65756;BME280;52489;47.502;18.940;2022-08-18T03:09:45;97754.41;;;22.31;65.69
65756;BME280;52489;47.502;18.940;2022-08-18T03:10:52;97757.09;;;22.35;65.61
65756;BME280;52489;47.502;18.940;2022-08-18T03:11:55;97755.56;;;22.37;65.39
65756;BME280;52489;47.502;18.940;2022-08-18T03:12:58;97746.41;;;22.35;65.50
65756;BME280;52489;47.502;18.940;2022-08-18T03:14:03;97754.38;;;22.24;66.00
65756;BME280;52489;47.502;18.940;2022-08-18T03:15:10;97756.69;;;22.25;66.09
65756;BME280;52489;47.502;18.940;2022-08-18T03:16:15;97752.50;;;22.35;65.59
65756;BME280;52489;47.502;18.940;2022-08-18T03:17:18;97750.22;;;22.41;65.48
65756;BME280;52489;47.502;18.940;2022-08-18T03:18:21;97751.75;;;22.42;65.50
65756;BME280;52489;47.502;18.940;2022-08-18T03:19:27;97755.19;;;22.39;65.69
65756;BME280;52489;47.502;18.940;2022-08-18T03:20:30;97757.47;;;22.40;65.57
65756;BME280;52489;47.502;18.940;2022-08-18T03:21:36;97767.03;;;22.48;65.25
65756;BME280;52489;47.502;18.940;2022-08-18T03:22:41;97758.22;;;22.41;65.61
65756;BME280;52489;47.502;18.940;2022-08-18T03:23:44;97766.59;;;22.36;65.76
65756;BME280;52489;47.502;18.940;2022-08-18T03:25:03;97763.53;;;22.26;66.02
65756;BME280;52489;47.502;18.940;2022-08-18T03:26:07;97774.97;;;22.23;66.26
65756;BME280;52489;47.502;18.940;2022-08-18T03:27:13;97776.81;;;22.05;66.74
65756;BME280;52489;47.502;18.940;2022-08-18T03:28:16;97775.31;;;22.04;66.74
65756;BME280;52489;47.502;18.940;2022-08-18T03:29:19;97774.19;;;22.16;66.37
65756;BME280;52489;47.502;18.940;2022-08-18T03:30:22;97777.66;;;22.27;65.91
65756;BME280;52489;47.502;18.940;2022-08-18T03:31:28;97778.81;;;22.26;65.77
65756;BME280;52489;47.502;18.940;2022-08-18T03:32:32;97775.72;;;22.24;65.87
65756;BME280;52489;47.502;18.940;2022-08-18T03:33:36;97775.25;;;21.90;67.07
65756;BME280;52489;47.502;18.940;2022-08-18T03:34:39;97760.75;;;21.91;66.98
65756;BME280;52489;47.502;18.940;2022-08-18T03:35:44;97769.56;;;21.98;66.71
65756;BME280;52489;47.502;18.940;2022-08-18T03:36:49;97763.84;;;21.93;67.23
65756;BME280;52489;47.502;18.940;2022-08-18T03:37:52;97765.34;;;21.94;67.17
65756;BME280;52489;47.502;18.940;2022-08-18T03:39:00;97763.84;;;21.93;67.75
65756;BME280;52489;47.502;18.940;2022-08-18T03:40:03;97751.59;;;21.88;67.91
65756;BME280;52489;47.502;18.940;2022-08-18T03:41:08;97760.34;;;21.81;68.29
65756;BME280;52489;47.502;18.940;2022-08-18T03:42:11;97759.66;;;21.95;67.72
65756;BME280;52489;47.502;18.940;2022-08-18T03:43:14;97758.50;;;22.03;67.63
65756;BME280;52489;47.502;18.940;2022-08-18T03:44:43;97754.31;;;22.06;67.44
65756;BME280;52489;47.502;18.940;2022-08-18T03:45:45;97745.19;;;22.14;67.19
65756;BME280;52489;47.502;18.940;2022-08-18T03:46:49;97746.78;;;22.19;67.02
65756;BME280;52489;47.502;18.940;2022-08-18T03:47:52;97745.59;;;22.16;67.40
65756;BME280;52489;47.502;18.940;2022-08-18T03:48:57;97739.16;;;22.32;67.01
65756;BME280;52489;47.502;18.940;2022-08-18T03:50:00;97745.25;;;22.29;66.82
65756;BME280;52489;47.502;18.940;2022-08-18T03:51:05;97754.03;;;22.29;66.92
65756;BME280;52489;47.502;18.940;2022-08-18T03:52:09;97746.81;;;22.33;66.63
65756;BME280;52489;47.502;18.940;2022-08-18T03:53:13;97750.59;;;22.36;66.62
65756;BME280;52489;47.502;18.940;2022-08-18T03:54:17;97757.84;;;22.32;66.67
65756;BME280;52489;47.502;18.940;2022-08-18T03:55:21;97757.84;;;22.35;66.65
65756;BME280;52489;47.502;18.940;2022-08-18T03:56:26;97754.78;;;22.22;67.40
65756;BME280;52489;47.502;18.940;2022-08-18T03:57:30;97745.66;;;22.31;67.01
65756;BME280;52489;47.502;18.940;2022-08-18T03:58:42;97751.75;;;22.38;66.66
65756;BME280;52489;47.502;18.940;2022-08-18T03:59:47;97747.16;;;22.32;66.98
65756;BME280;52489;47.502;18.940;2022-08-18T04:00:50;97744.13;;;22.33;66.87
65756;BME280;52489;47.502;18.940;2022-08-18T04:01:54;97747.94;;;22.36;66.67
65756;BME280;52489;47.502;18.940;2022-08-18T04:02:57;97749.47;;;22.37;66.62
65756;BME280;52489;47.502;18.940;2022-08-18T04:04:03;97746.41;;;22.35;66.84
65756;BME280;52489;47.502;18.940;2022-08-18T04:05:06;97751.38;;;22.36;66.88
65756;BME280;52489;47.502;18.940;2022-08-18T04:06:20;97749.84;;;22.35;66.89
65756;BME280;52489;47.502;18.940;2022-08-18T04:07:32;97759.38;;;22.40;66.67
65756;BME280;52489;47.502;18.940;2022-08-18T04:08:36;97753.28;;;22.39;66.74
65756;BME280;52489;47.502;18.940;2022-08-18T04:09:39;97757.84;;;22.39;66.78
65756;BME280;52489;47.502;18.940;2022-08-18T04:10:45;97751.00;;;22.38;66.84
65756;BME280;52489;47.502;18.940;2022-08-18T04:11:48;97755.19;;;22.32;66.81
65756;BME280;52489;47.502;18.940;2022-08-18T04:12:51;97749.09;;;22.31;66.96
65756;BME280;52489;47.502;18.940;2022-08-18T04:13:54;97749.44;;;22.30;66.99
65756;BME280;52489;47.502;18.940;2022-08-18T04:15:04;97757.06;;;22.20;67.63
65756;BME280;52489;47.502;18.940;2022-08-18T04:16:07;97757.81;;;22.21;67.61
65756;BME280;52489;47.502;18.940;2022-08-18T04:17:11;97757.47;;;22.37;66.89
65756;BME280;52489;47.502;18.940;2022-08-18T04:18:14;97755.19;;;22.39;66.66
65756;BME280;52489;47.502;18.940;2022-08-18T04:19:17;97761.66;;;22.38;66.87
65756;BME280;52489;47.502;18.940;2022-08-18T04:20:30;97760.16;;;22.40;66.69
65756;BME280;52489;47.502;18.940;2022-08-18T04:21:40;97762.06;;;22.36;66.84
65756;BME280;52489;47.502;18.940;2022-08-18T04:22:43;97753.66;;;22.34;66.85
65756;BME280;52489;47.502;18.940;2022-08-18T04:23:48;97754.03;;;22.33;67.06
65756;BME280;52489;47.502;18.940;2022-08-18T04:24:57;97743.00;;;22.31;66.82
65756;BME280;52489;47.502;18.940;2022-08-18T04:26:00;97754.38;;;22.24;67.26
65756;BME280;52489;47.502;18.940;2022-08-18T04:27:04;97764.72;;;22.36;66.71
65756;BME280;52489;47.502;18.940;2022-08-18T04:28:06;97765.47;;;22.40;66.40
65756;BME280;52489;47.502;18.940;2022-08-18T04:29:10;97757.09;;;22.38;66.35
65756;BME280;52489;47.502;18.940;2022-08-18T04:30:14;97761.66;;;22.38;66.56
65756;BME280;52489;47.502;18.940;2022-08-18T04:31:20;97759.78;;;22.45;66.07
65756;BME280;52489;47.502;18.940;2022-08-18T04:32:26;97758.63;;;22.46;65.86
65756;BME280;52489;47.502;18.940;2022-08-18T04:33:32;97761.28;;;22.43;66.08
65756;BME280;52489;47.502;18.940;2022-08-18T04:34:35;97751.38;;;22.43;66.15
65756;BME280;52489;47.502;18.940;2022-08-18T04:35:38;97755.56;;;22.41;65.98
65756;BME280;52489;47.502;18.940;2022-08-18T04:36:42;97749.06;;;22.38;66.43
65756;BME280;52489;47.502;18.940;2022-08-18T04:37:45;97748.72;;;22.43;66.02
65756;BME280;52489;47.502;18.940;2022-08-18T04:38:49;97757.47;;;22.44;65.98
65756;BME280;52489;47.502;18.940;2022-08-18T04:39:52;97751.38;;;22.40;66.09
65756;BME280;52489;47.502;18.940;2022-08-18T04:40:56;97754.44;;;22.45;65.89
65756;BME280;52489;47.502;18.940;2022-08-18T04:41:59;97755.97;;;22.46;65.95
65756;BME280;52489;47.502;18.940;2022-08-18T04:43:03;97752.91;;;22.44;65.96
65756;BME280;52489;47.502;18.940;2022-08-18T04:44:07;97757.47;;;22.37;66.50
65756;BME280;52489;47.502;18.940;2022-08-18T04:45:11;97755.97;;;22.43;66.11
65756;BME280;52489;47.502;18.940;2022-08-18T04:46:14;97755.59;;;22.55;65.42
65756;BME280;52489;47.502;18.940;2022-08-18T04:47:18;97770.44;;;22.49;65.65
65756;BME280;52489;47.502;18.940;2022-08-18T04:48:21;97758.63;;;22.46;65.79
65756;BME280;52489;47.502;18.940;2022-08-18T04:49:25;97759.75;;;22.38;66.09
65756;BME280;52489;47.502;18.940;2022-08-18T04:50:28;97762.03;;;22.51;65.84
65756;BME280;52489;47.502;18.940;2022-08-18T04:51:31;97765.88;;;22.57;65.50
65756;BME280;52489;47.502;18.940;2022-08-18T04:52:54;97763.97;;;22.54;65.79
65756;BME280;52489;47.502;18.940;2022-08-18T04:54:16;97758.25;;;22.52;65.70
65756;BME280;52489;47.502;18.940;2022-08-18T04:55:19;97757.09;;;22.53;65.60
65756;BME280;52489;47.502;18.940;2022-08-18T04:56:28;97763.22;;;22.64;65.16
65756;BME280;52489;47.502;18.940;2022-08-18T04:57:31;97767.03;;;22.52;65.52
65756;BME280;52489;47.502;18.940;2022-08-18T04:58:36;97773.13;;;22.67;64.81
65756;BME280;52489;47.502;18.940;2022-08-18T04:59:43;97770.84;;;22.69;64.87
65756;BME280;52489;47.502;18.940;2022-08-18T05:00:56;97773.13;;;22.67;65.01
65756;BME280;52489;47.502;18.940;2022-08-18T05:02:01;97767.03;;;22.66;64.89
65756;BME280;52489;47.502;18.940;2022-08-18T05:03:07;97761.31;;;22.57;65.58
65756;BME280;52489;47.502;18.940;2022-08-18T05:04:12;97758.63;;;22.64;64.89
65756;BME280;52489;47.502;18.940;2022-08-18T05:05:16;97759.41;;;22.72;64.50
65756;BME280;52489;47.502;18.940;2022-08-18T05:06:21;97762.06;;;22.72;64.35
65756;BME280;52489;47.502;18.940;2022-08-18T05:07:27;97757.50;;;22.73;64.22
65756;BME280;52489;47.502;18.940;2022-08-18T05:08:30;97755.59;;;22.73;64.19
65756;BME280;52489;47.502;18.940;2022-08-18T05:09:33;97759.38;;;22.79;64.00
65756;BME280;52489;47.502;18.940;2022-08-18T05:10:43;97755.97;;;22.89;63.61
65756;BME280;52489;47.502;18.940;2022-08-18T05:11:45;97752.53;;;22.96;63.35
65756;BME280;52489;47.502;18.940;2022-08-18T05:12:48;97760.53;;;23.00;63.34
65756;BME280;52489;47.502;18.940;2022-08-18T05:13:51;97756.72;;;22.97;62.90
65756;BME280;52489;47.502;18.940;2022-08-18T05:14:54;97758.25;;;23.05;62.68
65756;BME280;52489;47.502;18.940;2022-08-18T05:16:00;97753.28;;;23.11;62.67
65756;BME280;52489;47.502;18.940;2022-08-18T05:17:19;97752.13;;;23.12;63.00
65756;BME280;52489;47.502;18.940;2022-08-18T05:18:23;97757.84;;;23.07;63.43
65756;BME280;52489;47.502;18.940;2022-08-18T05:19:28;97755.19;;;23.07;63.16
65756;BME280;52489;47.502;18.940;2022-08-18T05:20:33;97765.13;;;23.13;62.73
65756;BME280;52489;47.502;18.940;2022-08-18T05:21:37;97757.84;;;23.17;62.60
65756;BME280;52489;47.502;18.940;2022-08-18T05:22:43;97760.16;;;23.19;62.52
65756;BME280;52489;47.502;18.940;2022-08-18T05:23:48;97761.66;;;23.24;62.61
65756;BME280;52489;47.502;18.940;2022-08-18T05:24:51;97754.75;;;23.33;61.97
65756;BME280;52489;47.502;18.940;2022-08-18T05:26:01;97764.69;;;23.40;61.42
65756;BME280;52489;47.502;18.940;2022-08-18T05:27:05;97757.78;;;23.46;61.22
65756;BME280;52489;47.502;18.940;2022-08-18T05:28:09;97755.88;;;23.43;61.62
65756;BME280;52489;47.502;18.940;2022-08-18T05:29:12;97762.38;;;23.35;61.99
65756;BME280;52489;47.502;18.940;2022-08-18T05:30:20;97755.09;;;23.46;61.28
65756;BME280;52489;47.502;18.940;2022-08-18T05:31:25;97767.66;;;23.60;60.87
65756;BME280;52489;47.502;18.940;2022-08-18T05:32:33;97766.50;;;23.61;60.70
65756;BME280;52489;47.502;18.940;2022-08-18T05:33:51;97768.41;;;23.68;60.89
65756;BME280;52489;47.502;18.940;2022-08-18T05:35:03;97766.88;;;23.70;60.69
65756;BME280;52489;47.502;18.940;2022-08-18T05:39:31;97767.19;;;23.87;59.45
65756;BME280;52489;47.502;18.940;2022-08-18T05:40:37;97756.50;;;23.90;59.78
65756;BME280;52489;47.502;18.940;2022-08-18T05:41:43;97762.16;;;23.96;59.59
65756;BME280;52489;47.502;18.940;2022-08-18T05:42:46;97765.97;;;24.02;58.97
65756;BME280;52489;47.502;18.940;2022-08-18T05:43:50;97757.94;;;24.05;59.06
65756;BME280;52489;47.502;18.940;2022-08-18T05:44:54;97767.09;;;24.08;58.47
65756;BME280;52489;47.502;18.940;2022-08-18T05:45:59;97761.66;;;24.19;57.88
65756;BME280;52489;47.502;18.940;2022-08-18T05:47:24;97770.41;;;24.26;57.83
65756;BME280;52489;47.502;18.940;2022-08-18T05:48:32;97771.91;;;24.31;57.74
65756;BME280;52489;47.502;18.940;2022-08-18T05:49:36;97765.75;;;24.38;57.65
65756;BME280;52489;47.502;18.940;2022-08-18T05:50:39;97760.75;;;24.40;57.71
65756;BME280;52489;47.502;18.940;2022-08-18T05:51:48;97762.28;;;24.44;57.37
65756;BME280;52489;47.502;18.940;2022-08-18T05:52:54;97766.03;;;24.54;56.31
65756;BME280;52489;47.502;18.940;2022-08-18T05:54:01;97762.91;;;24.63;55.95
65756;BME280;52489;47.502;18.940;2022-08-18T05:55:30;97766.66;;;24.72;55.82